Historyczne dane pomiarowe

Dodano dane terminowe – wersja testowa.

Dane z okresu 1951-2019

Wersja bazy: 1.34 [2019-03-16, lista zmian], aktualizacja planowana na 2019-04-15

Dane meteo z obszaru Polski uzyskane na podstawie danych udostępnionych przez Instytut Meteorologii i Gospodarki Wodnej – Państwowy Instytut Badawczy.

 

Wybierz Datę:    

       

TemperaturaWilgotnośćWiatrCiśnienieOpadyŚniegCzas trwania zjawisk
 Stacja t tx tn tng RH VA  wxwx mslp ppp RRR   cm mm wxwxwxwxwxwxwx
1983-08-14 13.9 18.5 10.2 8.9 74.0- 2.3 3.3---- 0.0------------
1983-08-13 14.4 21.3 12.3 10.4 85.5- 7.7 3.3---- 4.5------------
1983-08-12 19.7 25.9 15.7 13.8 74.5- 3.7 1.0---- 0.0------------
1983-08-11 18.7 23.3 15.3 13.9 86.5- 8.0 2.0---- 4.7------------
1983-08-10 19.0 25.6 12.4 10.9 81.8- 2.3 2.0---- 0.0------------
1983-08-09 19.7 25.7 13.3 12.0 77.0- 2.3 2.0---- 0.0------------
1983-08-08 19.6 26.3 15.1 13.6 84.3- 4.7 3.3---- 0.4------------
1983-08-07 20.3 26.3 16.0 15.0 78.3- 7.0 1.3---- 11.9------------
1983-08-06 15.6 21.9 8.4 6.3 77.5- 5.3 2.0---- 5.4------------
1983-08-05 13.7 18.1 11.3 11.0 84.8- 7.7 1.0---- 0.0------------
1983-08-04 15.3 23.9 12.8 13.7 84.3- 8.0 2.7---- 12.7------------
1983-08-03 21.1 28.1 15.1 13.5 74.8- 5.0 2.3---- 0.0------------
1983-08-02 19.8 26.8 12.0 9.5 66.3- 2.3 4.3---- 0.0------------
1983-08-01 19.2 25.3 10.0 7.5 60.8- 0.0 3.0---- 0.0------------
1983-07-31 17.4 22.9 11.2 9.4 65.8- 2.0 2.3---- 0.0------------
1983-07-30 16.5 20.2 14.0 11.1 76.5- 7.7 4.0---- 1.0------------
1983-07-29 18.0 23.4 13.2 11.5 73.5- 2.7 3.3---- 0.1------------
1983-07-28 20.0 25.3 17.2 15.1 83.5- 5.3 2.3---- 0.0------------
1983-07-27 22.2 28.5 15.3 13.5 71.5- 0.7 1.7---- 4.9------------
1983-07-26 18.2 26.1 12.6 11.0 82.5- 4.7 3.7---- 0.0------------
1983-07-25 14.2 18.3 8.3 6.2 82.0- 6.3 4.3---- 0.0------------
1983-07-24 15.2 18.6 10.2 8.0 84.0- 6.7 0.0---- 0.0------------
1983-07-23 14.1 19.6 10.7 10.1 85.0- 5.3 3.3---- 7.3------------
1983-07-22 13.1 18.9 10.7 9.5 81.3- 7.0 3.3---- 0.7------------
1983-07-21 11.8 17.1 8.8 7.1 81.8- 6.3 3.7---- 0.3------------
1983-07-20 15.9 23.5 12.7 13.4 90.0- 7.3 2.7---- 12.5------------
1983-07-19 21.0 27.8 12.7 11.0 66.8- 4.7 3.3---- 4.0------------
1983-07-18 19.5 26.6 10.3 7.8 63.5- 0.3 0.7---- 0.0------------
1983-07-17 19.7 24.5 15.3 13.6 72.5- 3.7 2.3---- 0.0------------
1983-07-16 20.7 27.1 14.3 12.0 66.3- 3.0 2.3---- 0.0------------
1983-07-15 18.8 24.1 14.2 13.9 69.3- 1.0 3.0---- 0.0------------
1983-07-14 18.5 23.9 15.9 15.0 95.0- 8.0 2.3---- 9.8------------
1983-07-13 18.5 23.6 15.0 13.5 89.3- 6.3 1.3---- 1.0------------
1983-07-12 17.5 21.4 15.6 16.0 88.8- 6.7 2.7---- 2.4------------
1983-07-11 19.7 26.5 15.1 12.9 76.5- 5.3 2.0---- 41.6------------
1983-07-10 20.6 27.3 13.8 10.8 73.0- 4.0 2.0---- 0.6------------
1983-07-09 20.6 28.1 13.0 11.5 63.0- 5.0 3.3---- 0.0------------
1983-07-08 19.2 26.2 9.8 7.1 59.8- 1.0 2.0---- 0.0------------
1983-07-07 19.0 25.6 9.9 7.3 58.0- 0.0 3.0---- 0.0------------
1983-07-06 19.3 26.5 10.0 7.5 62.3- 0.7 2.3---- 0.0------------
1983-07-05 19.0 25.0 12.5 9.8 66.3- 0.7 2.3---- 0.0------------
1983-07-04 19.8 26.1 9.2 6.3 54.8- 2.7 1.7---- 0.0------------
1983-07-03 18.3 23.6 11.4 9.3 61.5- 0.0 1.7---- 0.0------------
1983-07-02 18.4 23.7 15.3 13.5 88.8- 8.0 1.7---- 0.2------------
1983-07-01 20.5 25.9 14.3 10.9 70.5- 4.7 2.0---- 2.0------------
1983-06-30 16.3 23.7 6.7 4.5 60.3- 1.0 2.0---- 0.0------------
1983-06-29 14.8 19.9 9.0 6.1 62.5- 2.0 2.0---- 0.0------------
1983-06-28 17.7 19.7 16.2 14.5 84.0- 8.0 2.7---- 6.4------------
1983-06-27 19.0 27.1 12.1 8.5 80.0- 4.3 1.3---- 2.3------------
1983-06-26 19.6 24.8 16.0 13.9 59.8- 2.7 1.7---- 0.0------------
1983-06-25 20.7 28.1 11.8 7.6 54.3- 3.7 3.3---- 0.0------------
1983-06-24 17.6 25.1 5.9 2.7 51.0- 0.0 2.0---- 0.0------------
1983-06-23 13.7 20.4 5.4 2.1 55.0- 0.0 1.3---- 0.0------------
1983-06-22 12.1 18.6 6.3 3.4 54.5- 0.0 3.7---- 0.0------------
1983-06-21 17.4 23.9 10.8 8.8 65.0- 2.0 3.3---- 0.0------------
1983-06-20 18.7 23.3 15.3 14.7 76.8- 5.0 1.7---- 0.0------------
1983-06-19 17.3 22.6 14.4 13.9 92.8- 8.0 2.7---- 0.1------------
1983-06-18 13.8 16.7 11.5 11.0 91.8- 8.0 4.7---- 3.1------------
1983-06-17 12.2 17.7 6.3 4.5 80.0- 8.0 3.0---- 1.8------------
1983-06-16 12.8 16.1 10.7 11.3 87.5- 7.3 4.0---- 1.0------------
724.2 ms

 

Źródłem pochodzenia danych jest Instytut Meteorologii i Gospodarki Wodnej – Państwowy Instytut Badawczy. Dane Instytutu Meteorologii i Gospodarki Wodnej – Państwowego Instytutu Badawczego zostały przetworzone.

Dane źródłowe można odnaleźć na stronie https://dane.imgw.pl